sensor_id;sensor_type;location;lat;lon;timestamp;temperature;humidity
45409;DHT22;31162;51.076;3.784;2023-01-29T00:01:17;-0.10;99.90
45409;DHT22;31162;51.076;3.784;2023-01-29T00:03:42;0.00;99.90
45409;DHT22;31162;51.076;3.784;2023-01-29T00:06:08;-0.20;99.90
45409;DHT22;31162;51.076;3.784;2023-01-29T00:08:41;-0.30;99.90
45409;DHT22;31162;51.076;3.784;2023-01-29T00:11:07;-0.30;99.90
45409;DHT22;31162;51.076;3.784;2023-01-29T00:13:33;-0.20;99.90
45409;DHT22;31162;51.076;3.784;2023-01-29T00:15:59;0.10;99.90
45409;DHT22;31162;51.076;3.784;2023-01-29T00:18:26;0.10;99.90
45409;DHT22;31162;51.076;3.784;2023-01-29T00:20:52;0.10;99.90
45409;DHT22;31162;51.076;3.784;2023-01-29T00:23:18;0.20;99.90
45409;DHT22;31162;51.076;3.784;2023-01-29T00:25:44;0.20;99.90
45409;DHT22;31162;51.076;3.784;2023-01-29T00:28:10;0.20;99.90
45409;DHT22;31162;51.076;3.784;2023-01-29T00:30:36;0.20;99.90
45409;DHT22;31162;51.076;3.784;2023-01-29T00:33:03;0.30;99.90
45409;DHT22;31162;51.076;3.784;2023-01-29T00:35:29;0.40;99.90
45409;DHT22;31162;51.076;3.784;2023-01-29T00:37:55;0.30;99.90
45409;DHT22;31162;51.076;3.784;2023-01-29T00:40:21;0.40;99.90
45409;DHT22;31162;51.076;3.784;2023-01-29T00:42:50;0.50;99.90
45409;DHT22;31162;51.076;3.784;2023-01-29T00:45:34;0.40;99.90
45409;DHT22;31162;51.076;3.784;2023-01-29T00:48:03;0.30;99.90
45409;DHT22;31162;51.076;3.784;2023-01-29T00:50:30;0.20;99.90
45409;DHT22;31162;51.076;3.784;2023-01-29T00:52:56;0.30;99.90
45409;DHT22;31162;51.076;3.784;2023-01-29T00:55:22;0.40;99.90
45409;DHT22;31162;51.076;3.784;2023-01-29T00:57:47;0.50;99.90
45409;DHT22;31162;51.076;3.784;2023-01-29T01:00:15;0.50;99.90
45409;DHT22;31162;51.076;3.784;2023-01-29T01:02:41;0.50;99.90
45409;DHT22;31162;51.076;3.784;2023-01-29T01:05:30;0.60;99.90
45409;DHT22;31162;51.076;3.784;2023-01-29T01:07:56;0.50;99.90
45409;DHT22;31162;51.076;3.784;2023-01-29T01:10:26;0.60;99.90
45409;DHT22;31162;51.076;3.784;2023-01-29T01:15:22;0.60;99.90
45409;DHT22;31162;51.076;3.784;2023-01-29T01:17:55;0.70;99.90
45409;DHT22;31162;51.076;3.784;2023-01-29T01:20:21;0.80;99.90
45409;DHT22;31162;51.076;3.784;2023-01-29T01:22:47;0.90;99.90
45409;DHT22;31162;51.076;3.784;2023-01-29T01:25:12;1.10;99.90
45409;DHT22;31162;51.076;3.784;2023-01-29T01:27:38;1.20;99.90
45409;DHT22;31162;51.076;3.784;2023-01-29T01:30:11;1.20;99.90
45409;DHT22;31162;51.076;3.784;2023-01-29T01:32:38;1.20;99.90
45409;DHT22;31162;51.076;3.784;2023-01-29T01:35:04;1.10;99.90
45409;DHT22;31162;51.076;3.784;2023-01-29T01:37:30;1.00;99.90
45409;DHT22;31162;51.076;3.784;2023-01-29T01:39:55;1.10;99.90
45409;DHT22;31162;51.076;3.784;2023-01-29T01:42:31;1.20;99.90
45409;DHT22;31162;51.076;3.784;2023-01-29T01:45:03;1.20;99.90
45409;DHT22;31162;51.076;3.784;2023-01-29T01:50:12;1.30;99.90
45409;DHT22;31162;51.076;3.784;2023-01-29T01:52:42;1.30;99.90
45409;DHT22;31162;51.076;3.784;2023-01-29T01:55:10;1.40;99.90
45409;DHT22;31162;51.076;3.784;2023-01-29T01:57:36;1.50;99.90
45409;DHT22;31162;51.076;3.784;2023-01-29T02:00:08;1.40;99.90
45409;DHT22;31162;51.076;3.784;2023-01-29T02:02:37;1.40;99.90
45409;DHT22;31162;51.076;3.784;2023-01-29T02:05:22;1.40;99.90
45409;DHT22;31162;51.076;3.784;2023-01-29T02:08:06;1.30;99.90
45409;DHT22;31162;51.076;3.784;2023-01-29T02:10:51;1.30;99.90
45409;DHT22;31162;51.076;3.784;2023-01-29T02:13:17;1.40;99.90
45409;DHT22;31162;51.076;3.784;2023-01-29T02:15:47;1.50;99.90
45409;DHT22;31162;51.076;3.784;2023-01-29T02:18:17;1.60;99.90
45409;DHT22;31162;51.076;3.784;2023-01-29T02:21:13;1.70;99.90
45409;DHT22;31162;51.076;3.784;2023-01-29T02:24:05;1.90;99.90
45409;DHT22;31162;51.076;3.784;2023-01-29T02:27:01;2.00;99.90
45409;DHT22;31162;51.076;3.784;2023-01-29T02:29:39;1.90;99.90
45409;DHT22;31162;51.076;3.784;2023-01-29T02:32:34;1.90;99.90
45409;DHT22;31162;51.076;3.784;2023-01-29T02:35:10;2.00;99.90
45409;DHT22;31162;51.076;3.784;2023-01-29T02:38:31;2.00;99.90
45409;DHT22;31162;51.076;3.784;2023-01-29T02:41:20;2.10;99.90
45409;DHT22;31162;51.076;3.784;2023-01-29T02:44:02;2.10;99.90
45409;DHT22;31162;51.076;3.784;2023-01-29T02:46:47;2.20;99.90
45409;DHT22;31162;51.076;3.784;2023-01-29T02:49:48;2.10;99.90
45409;DHT22;31162;51.076;3.784;2023-01-29T02:52:24;2.10;99.90
45409;DHT22;31162;51.076;3.784;2023-01-29T02:55:05;2.10;99.90
45409;DHT22;31162;51.076;3.784;2023-01-29T02:57:37;1.90;99.90
45409;DHT22;31162;51.076;3.784;2023-01-29T03:00:20;2.00;99.90
45409;DHT22;31162;51.076;3.784;2023-01-29T03:03:13;2.10;99.90
45409;DHT22;31162;51.076;3.784;2023-01-29T03:08:46;2.10;99.90
45409;DHT22;31162;51.076;3.784;2023-01-29T03:11:15;2.10;99.90
45409;DHT22;31162;51.076;3.784;2023-01-29T03:14:04;2.10;99.90
45409;DHT22;31162;51.076;3.784;2023-01-29T03:16:48;2.10;99.90
45409;DHT22;31162;51.076;3.784;2023-01-29T03:19:28;2.10;99.90
45409;DHT22;31162;51.076;3.784;2023-01-29T03:21:57;2.30;99.90
45409;DHT22;31162;51.076;3.784;2023-01-29T03:27:23;2.40;99.90
45409;DHT22;31162;51.076;3.784;2023-01-29T03:30:11;2.60;99.90
45409;DHT22;31162;51.076;3.784;2023-01-29T03:32:58;2.50;99.90
45409;DHT22;31162;51.076;3.784;2023-01-29T03:35:26;2.50;99.90
45409;DHT22;31162;51.076;3.784;2023-01-29T03:38:08;2.50;99.90
45409;DHT22;31162;51.076;3.784;2023-01-29T03:41:04;2.50;99.90
45409;DHT22;31162;51.076;3.784;2023-01-29T03:43:34;2.50;99.90
45409;DHT22;31162;51.076;3.784;2023-01-29T03:48:38;2.60;99.90
45409;DHT22;31162;51.076;3.784;2023-01-29T03:53:55;2.60;99.90
45409;DHT22;31162;51.076;3.784;2023-01-29T03:56:50;2.70;99.90
45409;DHT22;31162;51.076;3.784;2023-01-29T04:02:23;2.80;99.90
45409;DHT22;31162;51.076;3.784;2023-01-29T04:04:57;2.80;99.90
45409;DHT22;31162;51.076;3.784;2023-01-29T04:07:24;2.70;99.90
45409;DHT22;31162;51.076;3.784;2023-01-29T04:10:00;2.70;99.90
45409;DHT22;31162;51.076;3.784;2023-01-29T04:12:43;2.80;99.90
45409;DHT22;31162;51.076;3.784;2023-01-29T04:15:13;2.90;99.90
45409;DHT22;31162;51.076;3.784;2023-01-29T04:17:43;2.80;99.90
45409;DHT22;31162;51.076;3.784;2023-01-29T04:20:10;2.70;99.90
45409;DHT22;31162;51.076;3.784;2023-01-29T04:22:38;2.70;99.90
45409;DHT22;31162;51.076;3.784;2023-01-29T04:25:07;2.90;99.90
45409;DHT22;31162;51.076;3.784;2023-01-29T04:39:06;2.80;99.90
45409;DHT22;31162;51.076;3.784;2023-01-29T04:46:48;3.20;99.90
45409;DHT22;31162;51.076;3.784;2023-01-29T04:49:46;3.30;99.90
45409;DHT22;31162;51.076;3.784;2023-01-29T04:52:21;3.20;99.90
45409;DHT22;31162;51.076;3.784;2023-01-29T04:55:11;3.20;99.90
45409;DHT22;31162;51.076;3.784;2023-01-29T04:57:49;3.20;99.90
45409;DHT22;31162;51.076;3.784;2023-01-29T05:00:26;3.10;99.90
45409;DHT22;31162;51.076;3.784;2023-01-29T05:02:53;3.10;99.90
45409;DHT22;31162;51.076;3.784;2023-01-29T05:05:20;3.10;99.90
45409;DHT22;31162;51.076;3.784;2023-01-29T05:07:47;3.20;99.90
45409;DHT22;31162;51.076;3.784;2023-01-29T05:10:16;3.30;99.90
45409;DHT22;31162;51.076;3.784;2023-01-29T05:12:45;3.40;99.90
45409;DHT22;31162;51.076;3.784;2023-01-29T05:15:16;3.30;99.90
45409;DHT22;31162;51.076;3.784;2023-01-29T05:17:44;3.30;99.90
45409;DHT22;31162;51.076;3.784;2023-01-29T05:20:11;3.40;99.90
45409;DHT22;31162;51.076;3.784;2023-01-29T05:22:41;3.40;99.90
45409;DHT22;31162;51.076;3.784;2023-01-29T05:25:28;3.40;99.90
45409;DHT22;31162;51.076;3.784;2023-01-29T05:27:54;3.30;99.90
45409;DHT22;31162;51.076;3.784;2023-01-29T05:30:36;3.20;99.90
45409;DHT22;31162;51.076;3.784;2023-01-29T05:33:03;3.30;99.90
45409;DHT22;31162;51.076;3.784;2023-01-29T05:35:30;3.20;99.90
45409;DHT22;31162;51.076;3.784;2023-01-29T05:37:56;3.20;99.90
45409;DHT22;31162;51.076;3.784;2023-01-29T05:40:23;3.30;99.90
45409;DHT22;31162;51.076;3.784;2023-01-29T05:42:49;3.30;99.90
45409;DHT22;31162;51.076;3.784;2023-01-29T05:45:16;3.40;99.90
45409;DHT22;31162;51.076;3.784;2023-01-29T05:47:43;3.30;99.90
45409;DHT22;31162;51.076;3.784;2023-01-29T05:50:09;3.30;99.90
45409;DHT22;31162;51.076;3.784;2023-01-29T05:52:35;3.50;99.90
45409;DHT22;31162;51.076;3.784;2023-01-29T05:55:01;3.30;99.90
45409;DHT22;31162;51.076;3.784;2023-01-29T05:57:26;3.40;99.90
45409;DHT22;31162;51.076;3.784;2023-01-29T05:59:52;3.40;99.90
45409;DHT22;31162;51.076;3.784;2023-01-29T06:02:17;3.40;99.90
45409;DHT22;31162;51.076;3.784;2023-01-29T06:04:43;3.50;99.90
45409;DHT22;31162;51.076;3.784;2023-01-29T06:07:09;3.40;99.90
45409;DHT22;31162;51.076;3.784;2023-01-29T06:09:34;3.40;99.90
45409;DHT22;31162;51.076;3.784;2023-01-29T06:12:00;3.30;99.90
45409;DHT22;31162;51.076;3.784;2023-01-29T06:14:26;3.10;99.90
45409;DHT22;31162;51.076;3.784;2023-01-29T06:16:51;3.20;99.90
45409;DHT22;31162;51.076;3.784;2023-01-29T06:19:17;3.00;99.90
45409;DHT22;31162;51.076;3.784;2023-01-29T06:21:43;2.90;99.90
45409;DHT22;31162;51.076;3.784;2023-01-29T06:24:08;3.00;99.90
45409;DHT22;31162;51.076;3.784;2023-01-29T06:26:34;3.10;99.90
45409;DHT22;31162;51.076;3.784;2023-01-29T06:29:00;3.20;99.90
45409;DHT22;31162;51.076;3.784;2023-01-29T06:31:25;3.30;99.90
45409;DHT22;31162;51.076;3.784;2023-01-29T06:33:51;3.40;99.90
45409;DHT22;31162;51.076;3.784;2023-01-29T06:36:17;3.30;99.90
45409;DHT22;31162;51.076;3.784;2023-01-29T06:38:42;3.20;99.90
45409;DHT22;31162;51.076;3.784;2023-01-29T06:41:18;3.30;99.90
45409;DHT22;31162;51.076;3.784;2023-01-29T06:43:47;3.30;99.90
45409;DHT22;31162;51.076;3.784;2023-01-29T06:46:13;3.50;99.90
45409;DHT22;31162;51.076;3.784;2023-01-29T06:48:38;3.50;99.90
45409;DHT22;31162;51.076;3.784;2023-01-29T06:51:06;3.50;99.90
45409;DHT22;31162;51.076;3.784;2023-01-29T06:53:34;3.60;99.90
45409;DHT22;31162;51.076;3.784;2023-01-29T06:56:00;3.70;99.90
45409;DHT22;31162;51.076;3.784;2023-01-29T06:58:25;3.60;99.90
45409;DHT22;31162;51.076;3.784;2023-01-29T07:00:51;3.50;99.90
45409;DHT22;31162;51.076;3.784;2023-01-29T07:03:18;3.50;99.90
45409;DHT22;31162;51.076;3.784;2023-01-29T07:05:50;3.50;99.90
45409;DHT22;31162;51.076;3.784;2023-01-29T07:08:16;3.60;99.90
45409;DHT22;31162;51.076;3.784;2023-01-29T07:10:42;3.60;99.90
45409;DHT22;31162;51.076;3.784;2023-01-29T07:13:07;3.60;99.90
45409;DHT22;31162;51.076;3.784;2023-01-29T07:15:33;3.60;99.90
45409;DHT22;31162;51.076;3.784;2023-01-29T07:18:01;3.60;99.90
45409;DHT22;31162;51.076;3.784;2023-01-29T07:20:30;3.80;99.90
45409;DHT22;31162;51.076;3.784;2023-01-29T07:22:56;3.80;99.90
45409;DHT22;31162;51.076;3.784;2023-01-29T07:25:23;3.90;99.90
45409;DHT22;31162;51.076;3.784;2023-01-29T07:27:49;3.90;99.90
45409;DHT22;31162;51.076;3.784;2023-01-29T07:30:16;3.90;99.90
45409;DHT22;31162;51.076;3.784;2023-01-29T07:32:42;3.90;99.90
45409;DHT22;31162;51.076;3.784;2023-01-29T07:35:08;3.90;99.90
45409;DHT22;31162;51.076;3.784;2023-01-29T07:37:34;3.90;99.90
45409;DHT22;31162;51.076;3.784;2023-01-29T07:40:00;3.90;99.90
45409;DHT22;31162;51.076;3.784;2023-01-29T07:42:25;4.00;99.90
45409;DHT22;31162;51.076;3.784;2023-01-29T07:44:51;4.00;99.90
45409;DHT22;31162;51.076;3.784;2023-01-29T07:47:17;4.10;99.90
45409;DHT22;31162;51.076;3.784;2023-01-29T07:49:42;4.10;99.90
45409;DHT22;31162;51.076;3.784;2023-01-29T07:52:08;4.10;99.90
45409;DHT22;31162;51.076;3.784;2023-01-29T07:54:34;4.20;99.90
45409;DHT22;31162;51.076;3.784;2023-01-29T07:56:59;4.20;99.90
45409;DHT22;31162;51.076;3.784;2023-01-29T07:59:25;4.10;99.90
45409;DHT22;31162;51.076;3.784;2023-01-29T08:01:51;4.00;99.90
45409;DHT22;31162;51.076;3.784;2023-01-29T08:04:16;4.00;99.90
45409;DHT22;31162;51.076;3.784;2023-01-29T08:06:42;4.20;99.90
45409;DHT22;31162;51.076;3.784;2023-01-29T08:09:08;4.20;99.90
45409;DHT22;31162;51.076;3.784;2023-01-29T08:11:34;4.20;99.90
45409;DHT22;31162;51.076;3.784;2023-01-29T08:14:00;4.20;99.90
45409;DHT22;31162;51.076;3.784;2023-01-29T08:16:25;4.20;99.90
45409;DHT22;31162;51.076;3.784;2023-01-29T08:18:51;4.40;99.90
45409;DHT22;31162;51.076;3.784;2023-01-29T08:21:16;4.50;99.90
45409;DHT22;31162;51.076;3.784;2023-01-29T08:23:42;4.30;99.90
45409;DHT22;31162;51.076;3.784;2023-01-29T08:26:08;4.40;99.90
45409;DHT22;31162;51.076;3.784;2023-01-29T08:28:35;4.40;99.90
45409;DHT22;31162;51.076;3.784;2023-01-29T08:31:00;4.30;99.90
45409;DHT22;31162;51.076;3.784;2023-01-29T08:33:26;4.50;99.90
45409;DHT22;31162;51.076;3.784;2023-01-29T08:35:53;4.60;99.90
45409;DHT22;31162;51.076;3.784;2023-01-29T08:38:19;4.70;99.90
45409;DHT22;31162;51.076;3.784;2023-01-29T08:40:45;4.70;99.90
45409;DHT22;31162;51.076;3.784;2023-01-29T08:43:12;4.70;99.90
45409;DHT22;31162;51.076;3.784;2023-01-29T08:45:42;4.80;99.90
45409;DHT22;31162;51.076;3.784;2023-01-29T08:48:08;4.60;99.90
45409;DHT22;31162;51.076;3.784;2023-01-29T08:50:35;4.80;99.90
45409;DHT22;31162;51.076;3.784;2023-01-29T08:53:05;4.90;99.90
45409;DHT22;31162;51.076;3.784;2023-01-29T08:55:38;5.00;99.90
45409;DHT22;31162;51.076;3.784;2023-01-29T08:58:04;5.10;99.90
45409;DHT22;31162;51.076;3.784;2023-01-29T09:00:31;5.20;99.90
45409;DHT22;31162;51.076;3.784;2023-01-29T09:02:57;5.10;99.90
45409;DHT22;31162;51.076;3.784;2023-01-29T09:05:24;5.20;99.90
45409;DHT22;31162;51.076;3.784;2023-01-29T09:07:50;5.10;99.90
45409;DHT22;31162;51.076;3.784;2023-01-29T09:10:16;5.00;99.90
45409;DHT22;31162;51.076;3.784;2023-01-29T09:12:42;4.90;99.90
45409;DHT22;31162;51.076;3.784;2023-01-29T09:15:08;5.00;99.90
45409;DHT22;31162;51.076;3.784;2023-01-29T09:17:34;4.90;99.90
45409;DHT22;31162;51.076;3.784;2023-01-29T09:19:59;4.80;99.90
45409;DHT22;31162;51.076;3.784;2023-01-29T09:22:25;4.90;99.90
45409;DHT22;31162;51.076;3.784;2023-01-29T09:24:51;4.90;99.90
45409;DHT22;31162;51.076;3.784;2023-01-29T09:27:16;4.90;99.90
45409;DHT22;31162;51.076;3.784;2023-01-29T09:29:42;4.80;99.90
45409;DHT22;31162;51.076;3.784;2023-01-29T09:32:08;4.80;99.90
45409;DHT22;31162;51.076;3.784;2023-01-29T09:34:33;5.00;99.90
45409;DHT22;31162;51.076;3.784;2023-01-29T09:36:59;5.00;99.90
45409;DHT22;31162;51.076;3.784;2023-01-29T09:39:25;5.10;99.90
45409;DHT22;31162;51.076;3.784;2023-01-29T09:42:23;5.10;99.90
45409;DHT22;31162;51.076;3.784;2023-01-29T09:45:07;5.10;99.90
45409;DHT22;31162;51.076;3.784;2023-01-29T09:47:35;5.10;99.90
45409;DHT22;31162;51.076;3.784;2023-01-29T09:50:13;5.20;99.90
45409;DHT22;31162;51.076;3.784;2023-01-29T09:53:02;5.20;99.90
45409;DHT22;31162;51.076;3.784;2023-01-29T09:55:42;5.20;99.90
45409;DHT22;31162;51.076;3.784;2023-01-29T09:58:17;5.30;99.90
45409;DHT22;31162;51.076;3.784;2023-01-29T10:04:27;5.40;99.90
45409;DHT22;31162;51.076;3.784;2023-01-29T10:14:51;5.30;99.90
45409;DHT22;31162;51.076;3.784;2023-01-29T10:20:45;5.50;99.90
45409;DHT22;31162;51.076;3.784;2023-01-29T10:25:47;5.80;99.90
45409;DHT22;31162;51.076;3.784;2023-01-29T10:30:59;5.90;99.90
45409;DHT22;31162;51.076;3.784;2023-01-29T10:33:42;6.10;99.90
45409;DHT22;31162;51.076;3.784;2023-01-29T10:36:14;6.10;99.90
45409;DHT22;31162;51.076;3.784;2023-01-29T10:38:50;5.90;99.90
45409;DHT22;31162;51.076;3.784;2023-01-29T10:46:26;6.30;99.90
45409;DHT22;31162;51.076;3.784;2023-01-29T11:02:45;6.80;99.90
45409;DHT22;31162;51.076;3.784;2023-01-29T11:08:22;6.50;99.90
45409;DHT22;31162;51.076;3.784;2023-01-29T11:11:06;6.70;99.90
45409;DHT22;31162;51.076;3.784;2023-01-29T11:14:03;6.90;99.90
45409;DHT22;31162;51.076;3.784;2023-01-29T11:16:42;6.90;99.90
45409;DHT22;31162;51.076;3.784;2023-01-29T11:19:09;6.70;99.90
45409;DHT22;31162;51.076;3.784;2023-01-29T11:21:55;7.00;99.90
45409;DHT22;31162;51.076;3.784;2023-01-29T11:24:22;7.00;99.90
45409;DHT22;31162;51.076;3.784;2023-01-29T11:26:49;6.90;99.90
45409;DHT22;31162;51.076;3.784;2023-01-29T11:29:38;7.20;99.90
45409;DHT22;31162;51.076;3.784;2023-01-29T11:32:13;7.20;99.90
45409;DHT22;31162;51.076;3.784;2023-01-29T11:37:39;7.50;99.90
45409;DHT22;31162;51.076;3.784;2023-01-29T11:42:44;8.30;99.90
45409;DHT22;31162;51.076;3.784;2023-01-29T11:47:48;8.20;99.90
45409;DHT22;31162;51.076;3.784;2023-01-29T11:50:23;7.80;99.90
45409;DHT22;31162;51.076;3.784;2023-01-29T11:52:50;7.60;99.90
45409;DHT22;31162;51.076;3.784;2023-01-29T11:55:19;7.30;99.90
45409;DHT22;31162;51.076;3.784;2023-01-29T11:58:14;7.30;99.90
45409;DHT22;31162;51.076;3.784;2023-01-29T12:00:45;7.10;99.90
45409;DHT22;31162;51.076;3.784;2023-01-29T12:03:38;7.00;99.90
45409;DHT22;31162;51.076;3.784;2023-01-29T12:06:55;7.20;99.90
45409;DHT22;31162;51.076;3.784;2023-01-29T12:09:09;7.10;99.90
45409;DHT22;31162;51.076;3.784;2023-01-29T12:11:35;6.80;99.90
45409;DHT22;31162;51.076;3.784;2023-01-29T12:14:27;6.70;99.90
45409;DHT22;31162;51.076;3.784;2023-01-29T12:17:10;6.60;99.90
45409;DHT22;31162;51.076;3.784;2023-01-29T12:19:40;6.70;99.90
45409;DHT22;31162;51.076;3.784;2023-01-29T12:22:15;6.80;99.90
45409;DHT22;31162;51.076;3.784;2023-01-29T12:24:56;6.90;99.90
45409;DHT22;31162;51.076;3.784;2023-01-29T12:27:42;7.10;99.90
45409;DHT22;31162;51.076;3.784;2023-01-29T12:30:24;7.10;99.90
45409;DHT22;31162;51.076;3.784;2023-01-29T12:33:13;7.00;99.90
45409;DHT22;31162;51.076;3.784;2023-01-29T12:35:51;6.90;99.90
45409;DHT22;31162;51.076;3.784;2023-01-29T12:38:20;6.80;99.90
45409;DHT22;31162;51.076;3.784;2023-01-29T12:41:05;6.80;99.90
45409;DHT22;31162;51.076;3.784;2023-01-29T12:43:34;6.60;99.90
45409;DHT22;31162;51.076;3.784;2023-01-29T12:46:06;6.60;99.90
45409;DHT22;31162;51.076;3.784;2023-01-29T12:48:33;6.70;99.90
45409;DHT22;31162;51.076;3.784;2023-01-29T12:51:34;6.70;99.90
45409;DHT22;31162;51.076;3.784;2023-01-29T12:54:08;6.60;99.90
45409;DHT22;31162;51.076;3.784;2023-01-29T12:56:52;6.60;99.90
45409;DHT22;31162;51.076;3.784;2023-01-29T13:01:53;6.80;99.90
45409;DHT22;31162;51.076;3.784;2023-01-29T13:07:16;7.00;99.90
45409;DHT22;31162;51.076;3.784;2023-01-29T13:09:48;6.90;99.90
45409;DHT22;31162;51.076;3.784;2023-01-29T13:12:17;6.70;99.90
45409;DHT22;31162;51.076;3.784;2023-01-29T13:14:47;6.70;99.90
45409;DHT22;31162;51.076;3.784;2023-01-29T13:17:35;7.00;99.90
45409;DHT22;31162;51.076;3.784;2023-01-29T13:20:09;7.30;99.90
45409;DHT22;31162;51.076;3.784;2023-01-29T13:22:38;7.50;99.90
45409;DHT22;31162;51.076;3.784;2023-01-29T13:25:05;7.60;99.90
45409;DHT22;31162;51.076;3.784;2023-01-29T13:27:36;7.40;99.90
45409;DHT22;31162;51.076;3.784;2023-01-29T13:30:04;7.10;99.90
45409;DHT22;31162;51.076;3.784;2023-01-29T13:32:31;7.00;99.90
45409;DHT22;31162;51.076;3.784;2023-01-29T13:35:01;7.10;99.90
45409;DHT22;31162;51.076;3.784;2023-01-29T13:39:58;7.20;99.90
45409;DHT22;31162;51.076;3.784;2023-01-29T13:45:06;6.90;99.90
45409;DHT22;31162;51.076;3.784;2023-01-29T13:47:35;6.80;99.90
45409;DHT22;31162;51.076;3.784;2023-01-29T13:50:20;6.90;99.90
45409;DHT22;31162;51.076;3.784;2023-01-29T14:07:56;7.00;99.90
45409;DHT22;31162;51.076;3.784;2023-01-29T14:10:24;7.10;99.90
45409;DHT22;31162;51.076;3.784;2023-01-29T14:12:52;7.00;99.90
45409;DHT22;31162;51.076;3.784;2023-01-29T14:15:23;6.80;99.90
45409;DHT22;31162;51.076;3.784;2023-01-29T14:18:13;6.80;99.90
45409;DHT22;31162;51.076;3.784;2023-01-29T14:21:03;6.70;99.90
45409;DHT22;31162;51.076;3.784;2023-01-29T14:23:49;6.70;99.90
45409;DHT22;31162;51.076;3.784;2023-01-29T14:26:30;6.80;99.90
45409;DHT22;31162;51.076;3.784;2023-01-29T14:29:03;6.70;99.90
45409;DHT22;31162;51.076;3.784;2023-01-29T14:36:49;6.30;99.90
45409;DHT22;31162;51.076;3.784;2023-01-29T14:42:32;6.50;99.90
45409;DHT22;31162;51.076;3.784;2023-01-29T14:53:00;6.60;99.90
45409;DHT22;31162;51.076;3.784;2023-01-29T14:57:56;6.60;99.90
45409;DHT22;31162;51.076;3.784;2023-01-29T15:00:32;6.70;99.90
45409;DHT22;31162;51.076;3.784;2023-01-29T15:03:00;6.60;99.90
45409;DHT22;31162;51.076;3.784;2023-01-29T15:05:31;6.70;99.90
45409;DHT22;31162;51.076;3.784;2023-01-29T15:08:22;6.50;99.90
45409;DHT22;31162;51.076;3.784;2023-01-29T15:10:56;6.50;99.90
45409;DHT22;31162;51.076;3.784;2023-01-29T15:13:54;6.50;99.90
45409;DHT22;31162;51.076;3.784;2023-01-29T15:16:39;6.70;99.90
45409;DHT22;31162;51.076;3.784;2023-01-29T15:19:18;6.80;99.90
45409;DHT22;31162;51.076;3.784;2023-01-29T15:22:07;6.60;99.90
45409;DHT22;31162;51.076;3.784;2023-01-29T15:24:35;6.70;99.90
45409;DHT22;31162;51.076;3.784;2023-01-29T15:27:01;6.70;99.90
45409;DHT22;31162;51.076;3.784;2023-01-29T15:29:27;6.50;99.90
45409;DHT22;31162;51.076;3.784;2023-01-29T15:31:55;6.50;99.90
45409;DHT22;31162;51.076;3.784;2023-01-29T15:34:21;6.50;99.90
45409;DHT22;31162;51.076;3.784;2023-01-29T15:36:47;6.40;99.90
45409;DHT22;31162;51.076;3.784;2023-01-29T15:39:23;6.20;99.90
45409;DHT22;31162;51.076;3.784;2023-01-29T15:41:53;6.00;99.90
45409;DHT22;31162;51.076;3.784;2023-01-29T15:44:28;6.00;99.90
45409;DHT22;31162;51.076;3.784;2023-01-29T15:46:57;6.00;99.90
45409;DHT22;31162;51.076;3.784;2023-01-29T15:52:02;5.90;99.90
45409;DHT22;31162;51.076;3.784;2023-01-29T15:54:30;6.10;99.90
45409;DHT22;31162;51.076;3.784;2023-01-29T15:56:56;6.00;99.90
45409;DHT22;31162;51.076;3.784;2023-01-29T15:59:29;6.00;99.90
45409;DHT22;31162;51.076;3.784;2023-01-29T16:01:55;6.00;99.90
45409;DHT22;31162;51.076;3.784;2023-01-29T16:04:25;6.10;99.90
45409;DHT22;31162;51.076;3.784;2023-01-29T16:06:53;6.10;99.90
45409;DHT22;31162;51.076;3.784;2023-01-29T16:09:21;6.00;99.90
45409;DHT22;31162;51.076;3.784;2023-01-29T16:11:48;5.90;99.90
45409;DHT22;31162;51.076;3.784;2023-01-29T16:14:17;5.80;99.90
45409;DHT22;31162;51.076;3.784;2023-01-29T16:16:45;5.80;99.90
45409;DHT22;31162;51.076;3.784;2023-01-29T16:19:27;5.90;99.90
45409;DHT22;31162;51.076;3.784;2023-01-29T16:22:02;6.00;99.90
45409;DHT22;31162;51.076;3.784;2023-01-29T16:24:30;6.00;99.90
45409;DHT22;31162;51.076;3.784;2023-01-29T16:27:01;6.00;99.90
45409;DHT22;31162;51.076;3.784;2023-01-29T16:29:31;6.00;99.90
45409;DHT22;31162;51.076;3.784;2023-01-29T16:31:59;6.00;99.90
45409;DHT22;31162;51.076;3.784;2023-01-29T16:34:34;6.00;99.90
45409;DHT22;31162;51.076;3.784;2023-01-29T16:37:03;5.80;99.90
45409;DHT22;31162;51.076;3.784;2023-01-29T16:39:32;5.70;99.90
45409;DHT22;31162;51.076;3.784;2023-01-29T16:47:24;5.60;99.90
45409;DHT22;31162;51.076;3.784;2023-01-29T16:49:56;5.60;99.90
45409;DHT22;31162;51.076;3.784;2023-01-29T16:52:24;5.60;99.90
45409;DHT22;31162;51.076;3.784;2023-01-29T16:54:58;5.60;99.90
45409;DHT22;31162;51.076;3.784;2023-01-29T16:57:28;5.60;99.90
45409;DHT22;31162;51.076;3.784;2023-01-29T16:59:57;5.60;99.90
45409;DHT22;31162;51.076;3.784;2023-01-29T17:02:31;5.60;99.90
45409;DHT22;31162;51.076;3.784;2023-01-29T17:05:03;5.50;99.90
45409;DHT22;31162;51.076;3.784;2023-01-29T17:07:31;5.60;99.90
45409;DHT22;31162;51.076;3.784;2023-01-29T17:09:59;5.70;99.90
45409;DHT22;31162;51.076;3.784;2023-01-29T17:12:26;5.70;99.90
45409;DHT22;31162;51.076;3.784;2023-01-29T17:15:18;5.70;99.90
45409;DHT22;31162;51.076;3.784;2023-01-29T17:17:49;5.60;99.90
45409;DHT22;31162;51.076;3.784;2023-01-29T17:20:15;5.60;99.90
45409;DHT22;31162;51.076;3.784;2023-01-29T17:22:41;5.60;99.90
45409;DHT22;31162;51.076;3.784;2023-01-29T17:25:12;5.60;99.90
45409;DHT22;31162;51.076;3.784;2023-01-29T17:27:40;5.50;99.90
45409;DHT22;31162;51.076;3.784;2023-01-29T17:30:13;5.30;99.90
45409;DHT22;31162;51.076;3.784;2023-01-29T17:32:39;5.30;99.90
45409;DHT22;31162;51.076;3.784;2023-01-29T17:35:05;5.30;99.90
45409;DHT22;31162;51.076;3.784;2023-01-29T17:37:31;5.30;99.90
45409;DHT22;31162;51.076;3.784;2023-01-29T17:39:57;5.30;99.90
45409;DHT22;31162;51.076;3.784;2023-01-29T17:42:25;5.40;99.90
45409;DHT22;31162;51.076;3.784;2023-01-29T17:44:53;5.40;99.90
45409;DHT22;31162;51.076;3.784;2023-01-29T17:47:18;5.40;99.90
45409;DHT22;31162;51.076;3.784;2023-01-29T17:49:44;5.40;99.90
45409;DHT22;31162;51.076;3.784;2023-01-29T17:52:10;5.30;99.90
45409;DHT22;31162;51.076;3.784;2023-01-29T17:54:36;5.30;99.90
45409;DHT22;31162;51.076;3.784;2023-01-29T17:57:01;5.30;99.90
45409;DHT22;31162;51.076;3.784;2023-01-29T17:59:32;5.40;99.90
45409;DHT22;31162;51.076;3.784;2023-01-29T18:01:58;5.40;99.90
45409;DHT22;31162;51.076;3.784;2023-01-29T18:04:24;5.30;99.90
45409;DHT22;31162;51.076;3.784;2023-01-29T18:06:51;5.30;99.90
45409;DHT22;31162;51.076;3.784;2023-01-29T18:09:20;5.40;99.90
45409;DHT22;31162;51.076;3.784;2023-01-29T18:11:47;5.40;99.90
45409;DHT22;31162;51.076;3.784;2023-01-29T18:14:13;5.40;99.90
45409;DHT22;31162;51.076;3.784;2023-01-29T18:16:40;5.40;99.90
45409;DHT22;31162;51.076;3.784;2023-01-29T18:19:13;5.40;99.90
45409;DHT22;31162;51.076;3.784;2023-01-29T18:21:39;5.50;99.90
45409;DHT22;31162;51.076;3.784;2023-01-29T18:24:05;5.40;99.90
45409;DHT22;31162;51.076;3.784;2023-01-29T18:26:30;5.40;99.90
45409;DHT22;31162;51.076;3.784;2023-01-29T18:28:56;5.50;99.90
45409;DHT22;31162;51.076;3.784;2023-01-29T18:31:22;5.60;99.90